Terminal Aerodrome Forecast
Issued by NWS

Home | Current Version | Previous Version | Graphics & Text | Print | Product List | Glossary Off
Versions: 1 2 3 4 5 6 7 8 9 10 11 12 13

000
FTUS43 KBIS 021731
TAFDIK
TAF
KDIK 021731Z 0218/0318 17012G19KT P6SM SCT250
     FM030000 17008KT P6SM FEW250
     FM031700 24009KT P6SM FEW250=

USA.gov is the U.S. government's official web portal to all federal, state and local government web resources and services.